Airfield :
LOGIN :

Register | Disclaimer

   EN    FR    IT 

 










Legend :    VFR   Marginal VFR   IFR   Intensive IFR   Very Intensive IFR
Visi :
Ceiling :
>= 8 km
>= 3000ft
5 to 8 km
1000 to 3000 ft
1500m to 5 km
500 to 1000 ft
800 to 1500m
200 to 500 ft
< 800m
< 200 ft
Symbols :   Thunderstorms  Fog  Heavy snow  Heavy precipitations  Wind > 20 kt
SIGMETs :     Misc.  Thunderstorms  Icing  Turbulence  Mountain Waves  Volcanic Ashes







- Airport Elevation : 1046 ft
- IATA code : NUE


EDDN - Nuremberg

CURRENT METAR :
  • 270550Z 35004KT 320V030 CAVOK 24/18 Q1023 NOSIG

EXPIRED METARs :
  • 270520Z 36004KT CAVOK 23/18 Q1023 NOSIG
  • 270450Z 35004KT CAVOK 22/19 Q1023 NOSIG
  • 270420Z 35003KT CAVOK 21/18 Q1023 NOSIG
  • 270350Z VRB01KT CAVOK 20/18 Q1023 NOSIG
  • 270320Z 34003KT CAVOK 19/18 Q1023 NOSIG

TAF TAF EDDN
Valid from the 27 at 06:00 until the 28 at 06:00 UTC


270500Z 2706/2806 36005KT CAVOK
BECMG 2707/2709 33010KT
BECMG 2718/2720 30005KT
BECMG 2804/2806 04005KT
No reported NOTAMs for that airfield.



MET'MAP, your aeronautical weather chart ! - Copyright ORBIFLY December 2007 - Disclaimer

ORBIFLY MET'MAP TEAM :

Programming & Development : Alexandra Zaïnal
Concept & Development : Baudouin d'Aumeries
Co-Development & Prog : Marc-Olivier Méhu
Technical & hardware support : Manuel Goepfert

Contact : metmap@orbifly.com




SOURCES & CREDITS :

   NOAA